Time;durP1;ratioP1;P1;durP2;ratioP2;P2;SDS_P1;SDS_P2;PMS_P1;PMS_P2;Temp;Humidity;BMP_temperature;BMP_pressure;BME280_temperature;BME280_humidity;BME280_pressure;Samples;Min_cycle;Max_cycle;Signal;HPM_P1;HPM_P2
2023/02/15 00:01:26;;;;;;;19.90;11.85;;;;;;;;;;5046145;28;20147;-78
2023/02/15 00:03:52;;;;;;;21.98;12.45;;;;;;;;;;5046964;28;20028;-78
2023/02/15 00:06:17;;;;;;;19.08;12.15;;;;;;;;;;5045627;28;20033;-78
2023/02/15 00:08:43;;;;;;;19.83;11.82;;;;;;;;;;5044541;28;20025;-78
2023/02/15 00:11:14;;;;;;;20.63;11.95;;;;;;;;;;5039952;28;20021;-78
2023/02/15 00:13:42;;;;;;;19.17;11.52;;;;;;;;;;5049340;28;20055;-78
2023/02/15 00:16:10;;;;;;;22.33;12.25;;;;;;;;;;5050110;28;20440;-78
2023/02/15 00:18:36;;;;;;;21.17;12.40;;;;;;;;;;5026004;28;20032;-78
2023/02/15 00:21:06;;;;;;;20.02;12.23;;;;;;;;;;5044845;28;20029;-78
2023/02/15 00:23:32;;;;;;;20.38;12.38;;;;;;;;;;5042086;28;20088;-78
2023/02/15 00:26:11;;;;;;;19.30;11.40;;;;;;;;;;5038094;28;20022;-79
2023/02/15 00:28:37;;;;;;;22.00;11.68;;;;;;;;;;5040293;28;20029;-78
2023/02/15 00:31:07;;;;;;;19.35;12.05;;;;;;;;;;5046577;28;20041;-78
2023/02/15 00:33:33;;;;;;;21.45;12.68;;;;;;;;;;5038931;28;20115;-78
2023/02/15 00:36:00;;;;;;;20.98;11.95;;;;;;;;;;5045361;28;20026;-79
2023/02/15 00:38:30;;;;;;;21.05;11.95;;;;;;;;;;5036977;28;20460;-78
2023/02/15 00:41:01;;;;;;;21.25;12.23;;;;;;;;;;5041989;28;20037;-78
2023/02/15 00:43:28;;;;;;;20.35;12.32;;;;;;;;;;5039837;28;20045;-78
2023/02/15 00:45:53;;;;;;;19.65;12.20;;;;;;;;;;5037374;28;20044;-79
2023/02/15 00:48:19;;;;;;;20.17;12.27;;;;;;;;;;5030052;28;20033;-78
2023/02/15 00:50:46;;;;;;;20.00;11.98;;;;;;;;;;5038870;28;20033;-78
2023/02/15 00:53:12;;;;;;;22.75;12.75;;;;;;;;;;5043102;28;20025;-78
2023/02/15 00:55:39;;;;;;;19.98;11.98;;;;;;;;;;5046362;28;20034;-78
2023/02/15 00:58:05;;;;;;;21.25;12.80;;;;;;;;;;5043475;28;20029;-78
2023/02/15 01:00:31;;;;;;;22.20;12.77;;;;;;;;;;5047318;28;20036;-78
2023/02/15 01:02:56;;;;;;;20.13;12.32;;;;;;;;;;5047395;28;20111;-78
2023/02/15 01:05:21;;;;;;;20.58;12.07;;;;;;;;;;5050999;28;20045;-78
2023/02/15 01:07:47;;;;;;;21.33;12.70;;;;;;;;;;5047286;28;20025;-78
2023/02/15 01:10:12;;;;;;;19.92;12.52;;;;;;;;;;5043710;28;20104;-78
2023/02/15 01:12:37;;;;;;;22.67;12.60;;;;;;;;;;5039738;28;20041;-78
2023/02/15 01:15:03;;;;;;;22.33;12.65;;;;;;;;;;5026392;28;20055;-78
2023/02/15 01:17:30;;;;;;;20.45;11.75;;;;;;;;;;5046634;28;20096;-78
2023/02/15 01:19:55;;;;;;;18.73;12.13;;;;;;;;;;5047832;28;20052;-78
2023/02/15 01:22:21;;;;;;;19.98;11.45;;;;;;;;;;5045007;28;20030;-78
2023/02/15 01:24:49;;;;;;;19.45;12.00;;;;;;;;;;5036875;28;20032;-78
2023/02/15 01:27:15;;;;;;;22.60;12.68;;;;;;;;;;5041995;28;20473;-78
2023/02/15 01:29:40;;;;;;;21.42;11.88;;;;;;;;;;5035549;28;20042;-78
2023/02/15 01:32:06;;;;;;;20.58;11.63;;;;;;;;;;5042571;28;20223;-78
2023/02/15 01:34:31;;;;;;;18.70;12.00;;;;;;;;;;5038837;28;20085;-78
2023/02/15 01:36:56;;;;;;;21.08;12.50;;;;;;;;;;5039875;28;20038;-78
2023/02/15 01:39:22;;;;;;;21.63;12.52;;;;;;;;;;5044084;28;20025;-78
2023/02/15 01:41:47;;;;;;;21.35;11.88;;;;;;;;;;5035801;28;20037;-78
2023/02/15 01:44:50;;;;;;;20.30;11.95;;;;;;;;;;5038211;28;20044;-78
2023/02/15 01:47:31;;;;;;;22.73;12.55;;;;;;;;;;5037466;28;20032;-78
2023/02/15 01:50:03;;;;;;;20.30;11.30;;;;;;;;;;5039276;28;20117;-78
2023/02/15 01:52:29;;;;;;;19.88;11.38;;;;;;;;;;5038672;28;20093;-78
2023/02/15 01:54:55;;;;;;;19.25;11.43;;;;;;;;;;5036616;28;20057;-78
2023/02/15 01:57:25;;;;;;;21.27;12.20;;;;;;;;;;5039704;28;20021;-78
2023/02/15 01:59:56;;;;;;;25.02;12.45;;;;;;;;;;5040971;28;20029;-78
2023/02/15 02:02:24;;;;;;;23.23;12.23;;;;;;;;;;5046974;28;20470;-78
2023/02/15 02:04:57;;;;;;;20.17;11.45;;;;;;;;;;5045801;28;20044;-78
2023/02/15 02:07:28;;;;;;;20.27;11.77;;;;;;;;;;5058883;28;20018;-78
2023/02/15 02:09:54;;;;;;;18.48;11.15;;;;;;;;;;5044587;28;20052;-78
2023/02/15 02:12:21;;;;;;;19.63;11.65;;;;;;;;;;5038754;28;20026;-78
2023/02/15 02:14:48;;;;;;;21.60;12.10;;;;;;;;;;5047491;28;20029;-78
2023/02/15 02:17:26;;;;;;;19.67;12.00;;;;;;;;;;5044608;28;20025;-78
2023/02/15 02:20:01;;;;;;;20.58;12.50;;;;;;;;;;5041912;28;20028;-78
2023/02/15 02:22:26;;;;;;;20.60;11.80;;;;;;;;;;5040419;28;20093;-78
2023/02/15 02:25:29;;;;;;;19.98;11.48;;;;;;;;;;5041767;28;20029;-78
2023/02/15 02:28:13;;;;;;;21.52;11.93;;;;;;;;;;5039588;28;20056;-78
2023/02/15 02:31:12;;;;;;;20.25;12.15;;;;;;;;;;5043586;28;20032;-78
2023/02/15 02:34:19;;;;;;;22.45;12.43;;;;;;;;;;5041780;28;20021;-78
2023/02/15 02:36:54;;;;;;;21.83;11.73;;;;;;;;;;5040978;28;20045;-78
2023/02/15 02:39:19;;;;;;;19.77;12.20;;;;;;;;;;5048007;28;20074;-78
2023/02/15 02:42:03;;;;;;;24.17;12.85;;;;;;;;;;5045075;28;20037;-78
2023/02/15 02:44:31;;;;;;;23.05;12.38;;;;;;;;;;5044770;28;20013;-78
2023/02/15 02:47:05;;;;;;;20.63;12.38;;;;;;;;;;5043945;28;20036;-78
2023/02/15 02:49:34;;;;;;;22.15;12.25;;;;;;;;;;5044507;28;20102;-78
2023/02/15 02:52:06;;;;;;;21.90;12.48;;;;;;;;;;5039409;28;20009;-78
2023/02/15 02:54:35;;;;;;;21.48;13.18;;;;;;;;;;5047490;28;20044;-78
2023/02/15 02:57:06;;;;;;;21.02;12.65;;;;;;;;;;5054021;28;20028;-79
2023/02/15 02:59:37;;;;;;;20.88;12.00;;;;;;;;;;5046195;28;20029;-78
2023/02/15 03:02:17;;;;;;;21.67;12.00;;;;;;;;;;5044432;28;20033;-78
2023/02/15 03:04:58;;;;;;;20.77;12.20;;;;;;;;;;5041601;28;20120;-78
2023/02/15 03:07:28;;;;;;;20.42;11.60;;;;;;;;;;5048268;28;20028;-78
2023/02/15 03:09:56;;;;;;;20.17;12.02;;;;;;;;;;5049021;28;20025;-78
2023/02/15 03:12:25;;;;;;;21.88;12.50;;;;;;;;;;5047567;28;20014;-78
2023/02/15 03:15:00;;;;;;;20.20;11.80;;;;;;;;;;5049966;28;20030;-78
2023/02/15 03:17:28;;;;;;;25.63;12.07;;;;;;;;;;5047239;28;20060;-78
2023/02/15 03:19:57;;;;;;;20.92;11.45;;;;;;;;;;5044639;28;20083;-78
2023/02/15 03:22:29;;;;;;;21.13;11.65;;;;;;;;;;5045896;28;20091;-78
2023/02/15 03:25:06;;;;;;;18.52;10.57;;;;;;;;;;5050782;28;20085;-78
2023/02/15 03:27:38;;;;;;;18.63;11.05;;;;;;;;;;5044465;28;20030;-78
2023/02/15 03:30:05;;;;;;;19.83;10.93;;;;;;;;;;5046837;28;20053;-78
2023/02/15 03:32:34;;;;;;;18.73;11.00;;;;;;;;;;5047040;28;20033;-78
2023/02/15 03:35:00;;;;;;;19.95;11.27;;;;;;;;;;5051232;28;20024;-78
2023/02/15 03:37:48;;;;;;;18.67;10.77;;;;;;;;;;5053448;28;20030;-78
2023/02/15 03:43:40;;;;;;;20.90;12.20;;;;;;;;;;5047675;28;20052;-78
2023/02/15 03:46:12;;;;;;;18.83;10.88;;;;;;;;;;5047540;28;20022;-78
2023/02/15 03:48:42;;;;;;;19.25;10.63;;;;;;;;;;5039359;28;20033;-78
2023/02/15 03:53:57;;;;;;;21.70;11.15;;;;;;;;;;5045242;28;20040;-78
2023/02/15 03:56:24;;;;;;;19.42;10.85;;;;;;;;;;5045888;28;20025;-78
2023/02/15 04:04:26;;;;;;;20.27;10.50;;;;;;;;;;5047280;28;20036;-78
2023/02/15 04:06:51;;;;;;;17.88;10.25;;;;;;;;;;5052020;28;20532;-78
2023/02/15 04:12:01;;;;;;;21.58;11.27;;;;;;;;;;5047785;28;20116;-78
2023/02/15 04:17:10;;;;;;;18.90;10.63;;;;;;;;;;5052593;28;20093;-78
2023/02/15 04:25:13;;;;;;;19.75;11.02;;;;;;;;;;5051508;28;20040;-78
2023/02/15 04:27:41;;;;;;;19.80;11.02;;;;;;;;;;5048266;28;20055;-78
2023/02/15 04:30:09;;;;;;;22.23;11.00;;;;;;;;;;5050520;28;20057;-78
2023/02/15 04:32:34;;;;;;;18.95;11.23;;;;;;;;;;5043960;28;20049;-78
2023/02/15 04:35:00;;;;;;;19.00;10.63;;;;;;;;;;5046036;28;20486;-78
2023/02/15 04:37:25;;;;;;;17.23;10.23;;;;;;;;;;5040790;28;20048;-78
2023/02/15 04:39:51;;;;;;;20.85;10.90;;;;;;;;;;5051035;28;20029;-78
2023/02/15 04:42:16;;;;;;;18.48;11.02;;;;;;;;;;5045708;28;20021;-78
2023/02/15 04:44:42;;;;;;;20.25;11.38;;;;;;;;;;5041335;28;21434;-78
2023/02/15 04:47:07;;;;;;;18.45;11.00;;;;;;;;;;5048318;28;20021;-78
2023/02/15 04:49:33;;;;;;;20.05;11.25;;;;;;;;;;5042387;28;20033;-78
2023/02/15 04:51:58;;;;;;;20.52;11.35;;;;;;;;;;5040784;28;20025;-78
2023/02/15 04:54:24;;;;;;;18.52;11.38;;;;;;;;;;5058552;28;20059;-78
2023/02/15 04:56:49;;;;;;;21.20;11.75;;;;;;;;;;5041222;28;20033;-78
2023/02/15 04:59:14;;;;;;;20.75;11.40;;;;;;;;;;5039758;28;20059;-78
2023/02/15 05:01:40;;;;;;;19.33;10.50;;;;;;;;;;5044619;28;20033;-78
2023/02/15 05:04:05;;;;;;;20.23;10.82;;;;;;;;;;5046447;28;20605;-78
2023/02/15 05:06:31;;;;;;;21.75;10.55;;;;;;;;;;5046328;28;20029;-78
2023/02/15 05:08:58;;;;;;;21.60;11.77;;;;;;;;;;5047325;28;20051;-78
2023/02/15 05:11:24;;;;;;;20.27;11.32;;;;;;;;;;5047098;28;20047;-78
2023/02/15 05:13:49;;;;;;;21.55;11.48;;;;;;;;;;5045396;28;20025;-78
2023/02/15 05:16:15;;;;;;;20.90;10.45;;;;;;;;;;5052416;28;20033;-78
2023/02/15 05:18:40;;;;;;;20.48;11.10;;;;;;;;;;5045759;28;20037;-78
2023/02/15 05:21:05;;;;;;;22.05;11.32;;;;;;;;;;5042338;28;20041;-78
2023/02/15 05:23:31;;;;;;;20.98;11.52;;;;;;;;;;5043454;28;20113;-78
2023/02/15 05:28:40;;;;;;;21.38;12.27;;;;;;;;;;5048105;28;20047;-78
2023/02/15 05:31:09;;;;;;;19.30;10.70;;;;;;;;;;5047971;28;20093;-78
2023/02/15 05:33:35;;;;;;;19.58;11.07;;;;;;;;;;5039811;28;20057;-78
2023/02/15 05:36:01;;;;;;;21.52;11.38;;;;;;;;;;5038468;28;20033;-78
2023/02/15 05:38:26;;;;;;;21.33;11.68;;;;;;;;;;5038826;28;20030;-78
2023/02/15 05:40:52;;;;;;;21.65;10.85;;;;;;;;;;5040768;28;20112;-78
2023/02/15 05:43:18;;;;;;;21.05;11.20;;;;;;;;;;5041703;28;20027;-78
2023/02/15 05:45:52;;;;;;;22.45;11.20;;;;;;;;;;5038512;28;20096;-78
2023/02/15 05:48:19;;;;;;;19.88;11.13;;;;;;;;;;5043140;28;20028;-78
2023/02/15 05:50:45;;;;;;;20.83;10.85;;;;;;;;;;5037873;28;20765;-78
2023/02/15 05:53:11;;;;;;;19.25;10.80;;;;;;;;;;5039152;28;20037;-78
2023/02/15 05:55:40;;;;;;;23.05;11.02;;;;;;;;;;5037064;28;20041;-78
2023/02/15 05:58:07;;;;;;;20.00;10.95;;;;;;;;;;5039845;28;20021;-78
2023/02/15 06:00:33;;;;;;;21.83;11.75;;;;;;;;;;5046074;28;20089;-78
2023/02/15 06:02:59;;;;;;;17.33;10.75;;;;;;;;;;5045407;28;20018;-78
2023/02/15 06:05:24;;;;;;;20.83;11.48;;;;;;;;;;5040935;28;20098;-78
2023/02/15 06:07:49;;;;;;;21.20;12.05;;;;;;;;;;5041362;28;20117;-77
2023/02/15 06:10:15;;;;;;;19.30;10.65;;;;;;;;;;5045887;28;20028;-78
2023/02/15 06:12:40;;;;;;;21.33;11.02;;;;;;;;;;5039928;28;20052;-78
2023/02/15 06:15:06;;;;;;;21.40;11.43;;;;;;;;;;5044429;28;20031;-78
2023/02/15 06:17:32;;;;;;;20.67;11.48;;;;;;;;;;5040022;28;20033;-78
2023/02/15 06:19:57;;;;;;;22.10;11.13;;;;;;;;;;5044108;28;20032;-78
2023/02/15 06:22:22;;;;;;;21.38;11.55;;;;;;;;;;5047437;28;20032;-78
2023/02/15 06:24:48;;;;;;;21.05;11.23;;;;;;;;;;5041886;28;20053;-78
2023/02/15 06:27:13;;;;;;;24.70;11.98;;;;;;;;;;5047932;28;20025;-78
2023/02/15 06:29:39;;;;;;;20.77;10.50;;;;;;;;;;5044535;28;20021;-78
2023/02/15 06:32:04;;;;;;;20.92;11.60;;;;;;;;;;5044149;28;20038;-78
2023/02/15 06:34:30;;;;;;;20.80;11.45;;;;;;;;;;5044959;28;20025;-78
2023/02/15 06:36:56;;;;;;;21.45;11.70;;;;;;;;;;5038044;28;20041;-78
2023/02/15 06:39:21;;;;;;;21.13;11.25;;;;;;;;;;5034676;28;20060;-78
2023/02/15 06:41:46;;;;;;;22.17;11.85;;;;;;;;;;5042378;28;20033;-78
2023/02/15 06:44:12;;;;;;;20.20;11.35;;;;;;;;;;5041570;28;20032;-78
2023/02/15 06:46:37;;;;;;;21.63;11.55;;;;;;;;;;5046916;28;20064;-78
2023/02/15 06:49:02;;;;;;;21.60;11.48;;;;;;;;;;5040149;28;20033;-78
2023/02/15 06:51:28;;;;;;;21.40;11.88;;;;;;;;;;5045667;28;20020;-78
2023/02/15 06:53:53;;;;;;;24.73;12.13;;;;;;;;;;5046306;28;20037;-78
2023/02/15 06:56:19;;;;;;;22.15;11.88;;;;;;;;;;5038624;28;20025;-78
2023/02/15 06:58:45;;;;;;;21.10;12.13;;;;;;;;;;5038773;28;20028;-78
2023/02/15 07:01:11;;;;;;;22.85;11.27;;;;;;;;;;5035746;28;20048;-78
2023/02/15 07:03:37;;;;;;;22.48;11.63;;;;;;;;;;5038322;28;20714;-78
2023/02/15 07:06:07;;;;;;;26.33;12.35;;;;;;;;;;5048584;28;20049;-78
2023/02/15 07:08:33;;;;;;;24.02;12.27;;;;;;;;;;5041524;28;20032;-78
2023/02/15 07:12:41;;;;;;;21.05;11.95;;;;;;;;;;5047278;28;20022;-78
2023/02/15 07:13:45;;;;;;;23.63;11.95;;;;;;;;;;5042660;28;20030;-78
2023/02/15 07:16:11;;;;;;;25.73;12.63;;;;;;;;;;5050238;28;20033;-78
2023/02/15 07:18:36;;;;;;;19.75;11.73;;;;;;;;;;5050113;28;20058;-78
2023/02/15 07:21:02;;;;;;;23.67;11.85;;;;;;;;;;5045804;28;20084;-78
2023/02/15 07:23:28;;;;;;;21.98;11.85;;;;;;;;;;5046655;28;20044;-79
2023/02/15 07:26:00;;;;;;;21.90;12.10;;;;;;;;;;5045868;28;20009;-78
2023/02/15 07:28:25;;;;;;;24.43;12.80;;;;;;;;;;5047182;28;20238;-78
2023/02/15 07:30:51;;;;;;;25.70;12.63;;;;;;;;;;5046260;28;20029;-78
2023/02/15 07:33:22;;;;;;;26.60;12.38;;;;;;;;;;5049957;28;20035;-78
2023/02/15 07:35:59;;;;;;;28.73;12.15;;;;;;;;;;5052767;28;20040;-78
2023/02/15 07:38:27;;;;;;;24.48;12.10;;;;;;;;;;5048931;28;20021;-78
2023/02/15 07:40:58;;;;;;;22.70;12.13;;;;;;;;;;5040228;28;20029;-78
2023/02/15 07:43:23;;;;;;;23.08;12.52;;;;;;;;;;5043832;28;20025;-78
2023/02/15 07:45:48;;;;;;;23.92;12.48;;;;;;;;;;5041884;28;20097;-78
2023/02/15 07:48:14;;;;;;;23.00;11.60;;;;;;;;;;5047862;28;20057;-78
2023/02/15 07:50:39;;;;;;;22.83;12.52;;;;;;;;;;5051857;28;20022;-78
2023/02/15 07:53:04;;;;;;;24.25;12.80;;;;;;;;;;5049728;28;20033;-78
2023/02/15 07:55:30;;;;;;;22.83;12.38;;;;;;;;;;5036932;28;20026;-78
2023/02/15 07:57:56;;;;;;;22.95;13.23;;;;;;;;;;5032743;28;20510;-78
2023/02/15 08:00:24;;;;;;;24.20;11.38;;;;;;;;;;5041053;28;20156;-78
2023/02/15 08:03:14;;;;;;;22.27;12.38;;;;;;;;;;5041641;28;20119;-78
2023/02/15 08:05:41;;;;;;;26.15;13.10;;;;;;;;;;5041501;28;20017;-78
2023/02/15 08:08:08;;;;;;;23.85;12.52;;;;;;;;;;5045720;28;20024;-78
2023/02/15 08:13:19;;;;;;;24.00;13.30;;;;;;;;;;5043121;28;20036;-78
2023/02/15 08:15:51;;;;;;;22.67;11.70;;;;;;;;;;5047332;28;20017;-78
2023/02/15 08:18:17;;;;;;;24.97;12.67;;;;;;;;;;5044606;28;20048;-78
2023/02/15 08:20:42;;;;;;;24.35;11.95;;;;;;;;;;5058131;28;20033;-78
2023/02/15 08:23:08;;;;;;;26.25;13.32;;;;;;;;;;5046800;28;20017;-78
2023/02/15 08:25:33;;;;;;;20.77;11.70;;;;;;;;;;5038840;28;20044;-78
2023/02/15 08:27:59;;;;;;;24.23;12.65;;;;;;;;;;5045490;28;20026;-78
2023/02/15 08:30:24;;;;;;;26.50;13.60;;;;;;;;;;5040531;28;20025;-77
2023/02/15 08:32:49;;;;;;;29.23;14.43;;;;;;;;;;5040017;28;20486;-78
2023/02/15 08:35:15;;;;;;;30.20;13.38;;;;;;;;;;5044514;28;20105;-78
2023/02/15 08:37:40;;;;;;;28.45;14.27;;;;;;;;;;5040881;28;20432;-78
2023/02/15 08:40:06;;;;;;;26.65;14.88;;;;;;;;;;5038507;28;20041;-78
2023/02/15 08:42:33;;;;;;;26.80;14.77;;;;;;;;;;5044531;28;20029;-78
2023/02/15 08:44:58;;;;;;;29.40;14.65;;;;;;;;;;5045760;28;20032;-77
2023/02/15 08:47:24;;;;;;;27.42;13.70;;;;;;;;;;5042761;28;20034;-78
2023/02/15 08:49:50;;;;;;;28.48;15.43;;;;;;;;;;5036421;28;20413;-78
2023/02/15 08:52:16;;;;;;;25.75;14.50;;;;;;;;;;5047790;28;20048;-78
2023/02/15 08:54:41;;;;;;;27.85;13.73;;;;;;;;;;5040545;28;20033;-78
2023/02/15 08:57:07;;;;;;;26.40;13.65;;;;;;;;;;5042289;28;20032;-78
2023/02/15 08:59:32;;;;;;;27.00;14.95;;;;;;;;;;5040010;28;20029;-78
2023/02/15 09:01:58;;;;;;;28.75;14.80;;;;;;;;;;5039735;28;20036;-78
2023/02/15 09:04:23;;;;;;;27.60;15.15;;;;;;;;;;5041073;28;20059;-78
2023/02/15 09:06:50;;;;;;;30.05;15.55;;;;;;;;;;5042134;28;20028;-78
2023/02/15 09:09:17;;;;;;;32.03;16.35;;;;;;;;;;5042781;28;20385;-78
2023/02/15 09:11:44;;;;;;;29.48;16.17;;;;;;;;;;5046172;28;20025;-78
2023/02/15 09:14:16;;;;;;;30.30;15.27;;;;;;;;;;5042964;28;20013;-78
2023/02/15 09:16:48;;;;;;;25.88;14.85;;;;;;;;;;5042921;28;20036;-78
2023/02/15 09:19:15;;;;;;;30.03;15.23;;;;;;;;;;5041563;28;20036;-78
2023/02/15 09:21:41;;;;;;;27.42;15.23;;;;;;;;;;5045023;28;20029;-78
2023/02/15 09:24:11;;;;;;;29.63;16.27;;;;;;;;;;5042778;28;20029;-78
2023/02/15 09:26:40;;;;;;;28.33;14.90;;;;;;;;;;5040936;28;20056;-78
2023/02/15 09:29:06;;;;;;;30.52;16.10;;;;;;;;;;5038523;28;20362;-78
2023/02/15 09:31:36;;;;;;;30.23;16.67;;;;;;;;;;5041392;28;20092;-78
2023/02/15 09:34:02;;;;;;;29.38;16.00;;;;;;;;;;5037678;28;20036;-78
2023/02/15 09:36:30;;;;;;;27.05;14.90;;;;;;;;;;5036383;28;20029;-78
2023/02/15 09:39:17;;;;;;;30.88;16.50;;;;;;;;;;5039469;28;20378;-78
2023/02/15 09:41:55;;;;;;;31.48;17.05;;;;;;;;;;5033802;28;20021;-78
2023/02/15 09:44:39;;;;;;;27.42;14.27;;;;;;;;;;5037000;28;20021;-78
2023/02/15 09:47:53;;;;;;;29.15;15.88;;;;;;;;;;5046028;28;20025;-78
2023/02/15 09:50:31;;;;;;;;;;;;;;;;;;5033554;28;20040;-78
2023/02/15 09:53:02;;;;;;;30.38;14.88;;;;;;;;;;5047864;28;19921;-78
2023/02/15 09:55:57;;;;;;;28.40;15.23;;;;;;;;;;5037092;28;20486;-78
2023/02/15 09:58:46;;;;;;;34.22;16.75;;;;;;;;;;5036858;28;20401;-78
2023/02/15 10:01:24;;;;;;;27.80;15.05;;;;;;;;;;5037944;28;20034;-78
2023/02/15 10:04:05;;;;;;;30.30;16.27;;;;;;;;;;5039292;28;20114;-78
2023/02/15 10:06:44;;;;;;;27.63;15.93;;;;;;;;;;5041668;28;20079;-78
2023/02/15 10:09:21;;;;;;;28.73;15.80;;;;;;;;;;5037719;28;20488;-79
2023/02/15 10:12:10;;;;;;;28.67;16.70;;;;;;;;;;5038577;28;20029;-78
2023/02/15 10:15:11;;;;;;;30.75;15.57;;;;;;;;;;5013931;28;20096;-78
2023/02/15 10:17:49;;;;;;;32.55;17.08;;;;;;;;;;5034757;28;20021;-79
2023/02/15 10:20:42;;;;;;;29.13;15.80;;;;;;;;;;5035833;28;20056;-79
2023/02/15 10:23:48;;;;;;;28.83;16.30;;;;;;;;;;5043499;28;20063;-79
2023/02/15 10:26:19;;;;;;;29.05;15.90;;;;;;;;;;5039653;28;20591;-79
2023/02/15 10:28:44;;;;;;;26.48;15.85;;;;;;;;;;5037570;28;20033;-79
2023/02/15 10:31:27;;;;;;;29.75;16.27;;;;;;;;;;5038641;28;20035;-78
2023/02/15 10:34:10;;;;;;;30.73;17.33;;;;;;;;;;5041867;28;20394;-79
2023/02/15 10:36:46;;;;;;;;;;;;;;;;;;5036876;28;20389;-78
2023/02/15 10:39:25;;;;;;;29.55;15.55;;;;;;;;;;5039338;28;19914;-79
2023/02/15 10:42:17;;;;;;;30.00;17.35;;;;;;;;;;5041159;28;20139;-79
2023/02/15 10:44:49;;;;;;;26.88;15.48;;;;;;;;;;5035306;28;20033;-79
2023/02/15 10:47:28;;;;;;;30.50;16.25;;;;;;;;;;5038332;28;20033;-79
2023/02/15 10:50:06;;;;;;;24.90;14.80;;;;;;;;;;5038802;28;20076;-79
2023/02/15 10:52:53;;;;;;;27.55;15.23;;;;;;;;;;5032474;28;20027;-79
2023/02/15 10:55:26;;;;;;;33.58;16.17;;;;;;;;;;5020849;28;20089;-79
2023/02/15 10:58:10;;;;;;;32.08;18.05;;;;;;;;;;5036222;28;20504;-79
2023/02/15 11:00:47;;;;;;;32.90;17.50;;;;;;;;;;5034797;28;20021;-78
2023/02/15 11:03:43;;;;;;;28.52;16.58;;;;;;;;;;5030825;28;20013;-79
2023/02/15 11:06:13;;;;;;;28.33;16.05;;;;;;;;;;5030634;28;20026;-79
2023/02/15 11:09:10;;;;;;;29.95;15.63;;;;;;;;;;5036411;28;20033;-79
2023/02/15 11:11:44;;;;;;;29.00;16.45;;;;;;;;;;5031405;28;20057;-79
2023/02/15 11:14:32;;;;;;;31.27;16.38;;;;;;;;;;5031770;28;20038;-79
2023/02/15 11:17:04;;;;;;;27.52;16.02;;;;;;;;;;5027907;28;20120;-79
2023/02/15 11:19:38;;;;;;;31.63;17.00;;;;;;;;;;5032211;28;20154;-79
2023/02/15 11:22:05;;;;;;;30.63;16.92;;;;;;;;;;5038459;28;20045;-79
2023/02/15 11:24:39;;;;;;;32.83;17.75;;;;;;;;;;5034730;28;20026;-79
2023/02/15 11:27:25;;;;;;;;;;;;;;;;;;5033101;28;20021;-79
2023/02/15 11:30:23;;;;;;;30.00;15.73;;;;;;;;;;5029016;28;19920;-79
2023/02/15 11:32:55;;;;;;;31.10;17.42;;;;;;;;;;5037658;28;20393;-79
2023/02/15 11:35:27;;;;;;;30.27;16.23;;;;;;;;;;5032565;28;20021;-79
2023/02/15 11:38:20;;;;;;;30.92;16.90;;;;;;;;;;5035373;28;20025;-79
2023/02/15 11:40:52;;;;;;;31.20;17.17;;;;;;;;;;5030573;28;20092;-79
2023/02/15 11:43:47;;;;;;;30.90;17.20;;;;;;;;;;5041088;28;20160;-79
2023/02/15 11:46:14;;;;;;;32.75;17.50;;;;;;;;;;5036419;28;20029;-79
2023/02/15 11:48:41;;;;;;;31.00;17.55;;;;;;;;;;5037423;28;20530;-79
2023/02/15 11:51:13;;;;;;;31.05;17.00;;;;;;;;;;5041619;28;20031;-79
2023/02/15 11:53:38;;;;;;;29.13;16.77;;;;;;;;;;5036559;28;20104;-79
2023/02/15 11:56:05;;;;;;;29.80;16.25;;;;;;;;;;5036291;28;20032;-79
2023/02/15 11:58:42;;;;;;;30.88;16.73;;;;;;;;;;5039910;28;20030;-79
2023/02/15 12:01:23;;;;;;;30.63;16.48;;;;;;;;;;5041122;28;20037;-79
2023/02/15 12:03:57;;;;;;;27.33;15.55;;;;;;;;;;5038477;28;20052;-79
2023/02/15 12:06:33;;;;;;;29.30;16.35;;;;;;;;;;5037452;28;20109;-79
2023/02/15 12:09:20;;;;;;;30.92;17.00;;;;;;;;;;5032379;28;20033;-79
2023/02/15 12:11:45;;;;;;;33.88;16.73;;;;;;;;;;5042425;28;20017;-79
2023/02/15 12:14:15;;;;;;;30.75;17.33;;;;;;;;;;5042306;28;20036;-79
2023/02/15 12:16:46;;;;;;;32.15;17.23;;;;;;;;;;5039115;28;20025;-79
2023/02/15 12:19:30;;;;;;;29.42;16.52;;;;;;;;;;5037119;28;20029;-79
2023/02/15 12:21:57;;;;;;;32.83;16.52;;;;;;;;;;5032941;28;20036;-79
2023/02/15 12:24:27;;;;;;;32.28;17.45;;;;;;;;;;5035197;28;20096;-79
2023/02/15 12:27:21;;;;;;;33.13;17.33;;;;;;;;;;5036642;28;20394;-79
2023/02/15 12:29:50;;;;;;;26.50;15.52;;;;;;;;;;5043287;28;20152;-79
2023/02/15 12:32:33;;;;;;;28.38;16.42;;;;;;;;;;5041227;28;20037;-79
2023/02/15 12:35:13;;;;;;;26.85;16.67;;;;;;;;;;5035816;28;20079;-80
2023/02/15 12:37:39;;;;;;;26.85;15.52;;;;;;;;;;5038131;28;20029;-79
2023/02/15 12:40:27;;;;;;;30.13;16.67;;;;;;;;;;5041409;28;20032;-79
2023/02/15 12:42:53;;;;;;;33.65;16.95;;;;;;;;;;5040072;28;20035;-80
2023/02/15 12:45:23;;;;;;;29.88;16.55;;;;;;;;;;5033019;28;20447;-79
2023/02/15 12:48:07;;;;;;;30.65;16.83;;;;;;;;;;5031656;28;20029;-79
2023/02/15 12:50:32;;;;;;;33.50;17.50;;;;;;;;;;5031746;28;20029;-79
2023/02/15 12:53:18;;;;;;;30.30;16.52;;;;;;;;;;5035405;28;20113;-79
2023/02/15 12:56:05;;;;;;;31.08;16.83;;;;;;;;;;5028320;28;20494;-79
2023/02/15 12:58:41;;;;;;;31.98;17.60;;;;;;;;;;5030389;28;20513;-79
2023/02/15 13:01:19;;;;;;;30.35;16.20;;;;;;;;;;5033745;28;20018;-79
2023/02/15 13:03:56;;;;;;;32.53;17.25;;;;;;;;;;5053239;28;20061;-79
2023/02/15 13:06:21;;;;;;;29.15;17.77;;;;;;;;;;5036797;28;20084;-79
2023/02/15 13:08:53;;;;;;;32.35;17.52;;;;;;;;;;5021639;28;20029;-79
2023/02/15 13:11:24;;;;;;;30.40;17.40;;;;;;;;;;5034234;28;20045;-79
2023/02/15 13:13:55;;;;;;;31.90;17.33;;;;;;;;;;5039349;28;20485;-79
2023/02/15 13:16:33;;;;;;;27.80;15.40;;;;;;;;;;5035263;28;20469;-79
2023/02/15 13:19:05;;;;;;;31.27;17.45;;;;;;;;;;5036989;28;20765;-79
2023/02/15 13:21:36;;;;;;;33.47;17.95;;;;;;;;;;5031756;28;20033;-80
2023/02/15 13:24:07;;;;;;;30.25;17.20;;;;;;;;;;5038837;28;20389;-79
2023/02/15 13:26:34;;;;;;;31.27;15.90;;;;;;;;;;5037529;28;20461;-79
2023/02/15 13:29:30;;;;;;;26.85;16.20;;;;;;;;;;5031057;28;20063;-79
2023/02/15 13:31:59;;;;;;;30.08;16.05;;;;;;;;;;5029886;28;20036;-79
2023/02/15 13:34:39;;;;;;;30.48;16.90;;;;;;;;;;5050689;28;20033;-79
2023/02/15 13:37:08;;;;;;;28.38;16.17;;;;;;;;;;5028695;28;20040;-78
2023/02/15 13:39:53;;;;;;;28.23;15.52;;;;;;;;;;5036022;28;20044;-79
2023/02/15 13:42:32;;;;;;;26.92;15.35;;;;;;;;;;5038742;28;20393;-79
2023/02/15 13:45:58;;;;;;;29.67;15.75;;;;;;;;;;5024452;28;20084;-79
2023/02/15 13:48:51;;;;;;;30.80;14.98;;;;;;;;;;5029310;28;20064;-78
2023/02/15 13:51:48;;;;;;;27.10;15.73;;;;;;;;;;5036958;28;20033;-78
2023/02/15 13:54:19;;;;;;;32.78;15.32;;;;;;;;;;5031668;28;20029;-78
2023/02/15 13:57:14;;;;;;;32.83;17.20;;;;;;;;;;5031802;28;20025;-78
2023/02/15 13:59:49;;;;;;;28.48;15.60;;;;;;;;;;5025854;28;20036;-78
2023/02/15 14:02:40;;;;;;;28.55;16.50;;;;;;;;;;5037234;28;20536;-79
2023/02/15 14:05:50;;;;;;;26.08;15.85;;;;;;;;;;5038089;28;20037;-77
2023/02/15 14:08:27;;;;;;;31.25;16.42;;;;;;;;;;5012416;28;20057;-76
2023/02/15 14:11:12;;;;;;;33.83;17.10;;;;;;;;;;5006976;28;20026;-77
2023/02/15 14:13:47;;;;;;;31.77;17.60;;;;;;;;;;5015609;28;20042;-76
2023/02/15 14:16:50;;;;;;;30.27;16.42;;;;;;;;;;5025521;28;20026;-77
2023/02/15 14:19:33;;;;;;;30.27;16.70;;;;;;;;;;5030927;28;20089;-77
2023/02/15 14:22:08;;;;;;;32.67;15.98;;;;;;;;;;5027537;28;20036;-77
2023/02/15 14:24:47;;;;;;;28.65;16.77;;;;;;;;;;5027748;28;20029;-76
2023/02/15 14:27:37;;;;;;;31.55;16.50;;;;;;;;;;5030162;28;20054;-77
2023/02/15 14:30:15;;;;;;;33.80;17.42;;;;;;;;;;5031897;28;20160;-77
2023/02/15 14:32:45;;;;;;;30.85;16.13;;;;;;;;;;5027080;28;20366;-76
2023/02/15 14:35:21;;;;;;;27.67;15.82;;;;;;;;;;5024132;28;20163;-76
2023/02/15 14:37:59;;;;;;;34.00;16.60;;;;;;;;;;5024760;28;20032;-76
2023/02/15 14:41:02;;;;;;;29.98;16.23;;;;;;;;;;5030661;28;20475;-76
2023/02/15 14:43:27;;;;;;;30.42;15.20;;;;;;;;;;5030505;28;20040;-77
2023/02/15 14:46:08;;;;;;;28.27;16.08;;;;;;;;;;5031173;28;20072;-77
2023/02/15 14:49:01;;;;;;;30.02;16.60;;;;;;;;;;5040167;28;20029;-77
2023/02/15 14:51:45;;;;;;;;;;;;;;;;;;5028688;28;20116;-77
2023/02/15 14:54:17;;;;;;;30.70;15.60;;;;;;;;;;5030723;28;20365;-77
2023/02/15 14:57:02;;;;;;;30.17;16.40;;;;;;;;;;5030925;28;20171;-77
2023/02/15 14:59:43;;;;;;;32.67;16.40;;;;;;;;;;5024706;28;20446;-76
2023/02/15 15:02:08;;;;;;;30.95;16.15;;;;;;;;;;5025819;28;20040;-76
2023/02/15 15:04:41;;;;;;;32.13;17.27;;;;;;;;;;5028777;28;20041;-76
2023/02/15 15:07:19;;;;;;;34.47;17.85;;;;;;;;;;5032527;28;20021;-77
2023/02/15 15:09:48;;;;;;;33.00;16.98;;;;;;;;;;5018893;28;20058;-76
2023/02/15 15:12:15;;;;;;;30.38;17.67;;;;;;;;;;5026444;28;20033;-78
2023/02/15 15:14:45;;;;;;;29.65;17.38;;;;;;;;;;5029723;28;20075;-77
2023/02/15 15:17:13;;;;;;;31.75;17.05;;;;;;;;;;5029984;28;20027;-77